createdAt,value
2023-03-05T00:01:27.833Z,64.67
2023-03-05T00:03:56.710Z,65.09
2023-03-05T00:06:26.831Z,65.40
2023-03-05T00:08:54.271Z,65.76
2023-03-05T00:11:21.755Z,64.87
2023-03-05T00:13:51.613Z,65.81
2023-03-05T00:16:19.001Z,65.37
2023-03-05T00:18:46.745Z,65.80
2023-03-05T00:21:24.703Z,66.38
2023-03-05T00:23:53.163Z,66.30
2023-03-05T00:26:21.610Z,66.49
2023-03-05T00:28:50.477Z,66.83
2023-03-05T00:31:19.967Z,66.45
2023-03-05T00:33:47.346Z,66.92
2023-03-05T00:36:14.432Z,67.18
2023-03-05T00:38:41.487Z,67.37
2023-03-05T00:41:09.380Z,67.18
2023-03-05T00:43:36.482Z,67.34
2023-03-05T00:46:03.873Z,67.90
2023-03-05T00:48:31.115Z,67.47
2023-03-05T00:50:58.172Z,68.30
2023-03-05T00:53:25.649Z,68.06
2023-03-05T00:55:52.718Z,67.97
2023-03-05T00:58:20.135Z,67.48
2023-03-05T01:00:50.754Z,68.45
2023-03-05T01:03:20.598Z,68.19
2023-03-05T01:05:48.684Z,68.27
2023-03-05T01:08:17.066Z,68.44
2023-03-05T01:10:44.160Z,69.06
2023-03-05T01:13:11.332Z,68.94
2023-03-05T01:15:38.369Z,68.66
2023-03-05T01:18:05.726Z,68.63
2023-03-05T01:20:32.866Z,68.97
2023-03-05T01:23:01.985Z,68.81
2023-03-05T01:25:29.166Z,69.17
2023-03-05T01:27:56.631Z,69.89
2023-03-05T01:30:23.759Z,69.77
2023-03-05T01:32:50.869Z,69.59
2023-03-05T01:35:21.385Z,69.64
2023-03-05T01:37:48.805Z,69.44
2023-03-05T01:40:19.907Z,70.12
2023-03-05T01:42:49.278Z,69.82
2023-03-05T01:45:19.028Z,70.05
2023-03-05T01:47:46.310Z,69.74
2023-03-05T01:50:23.364Z,70.28
2023-03-05T01:53:06.958Z,69.96
2023-03-05T01:55:37.228Z,69.86
2023-03-05T01:58:11.797Z,70.06
2023-03-05T02:00:44.539Z,70.29
2023-03-05T02:03:14.010Z,70.67
2023-03-05T02:05:43.511Z,70.16
2023-03-05T02:08:22.951Z,70.47
2023-03-05T02:10:58.295Z,70.99
2023-03-05T02:13:28.393Z,70.63
2023-03-05T02:15:59.373Z,70.82
2023-03-05T02:18:27.275Z,70.73
2023-03-05T02:20:57.245Z,71.69
2023-03-05T02:23:27.508Z,71.20
2023-03-05T02:25:55.404Z,71.37
2023-03-05T02:28:25.360Z,71.67
2023-03-05T02:30:52.832Z,71.74
2023-03-05T02:33:21.294Z,71.35
2023-03-05T02:35:49.262Z,71.38
2023-03-05T02:38:19.179Z,71.85
2023-03-05T02:40:46.356Z,71.99
2023-03-05T02:43:15.183Z,72.01
2023-03-05T02:45:42.436Z,71.77
2023-03-05T02:48:09.708Z,72.02
2023-03-05T02:50:37.443Z,72.01
2023-03-05T02:53:04.586Z,71.92
2023-03-05T02:55:31.732Z,71.66
2023-03-05T02:58:00.147Z,72.15
2023-03-05T03:00:28.009Z,72.20
2023-03-05T03:02:55.837Z,71.94
2023-03-05T03:05:23.017Z,72.58
2023-03-05T03:07:50.844Z,72.59
2023-03-05T03:10:18.119Z,72.55
2023-03-05T03:12:45.414Z,72.64
2023-03-05T03:15:15.079Z,72.51
2023-03-05T03:17:42.727Z,73.01
2023-03-05T03:20:14.218Z,72.25
2023-03-05T03:22:42.557Z,72.87
2023-03-05T03:25:11.188Z,72.99
2023-03-05T03:27:38.345Z,72.51
2023-03-05T03:30:06.533Z,72.97
2023-03-05T03:32:34.679Z,72.90
2023-03-05T03:35:01.937Z,72.51
2023-03-05T03:37:29.439Z,72.13
2023-03-05T03:39:56.834Z,72.87
2023-03-05T03:42:24.294Z,73.01
2023-03-05T03:44:51.727Z,72.78
2023-03-05T03:47:19.119Z,73.18
2023-03-05T03:49:46.209Z,72.91
2023-03-05T03:52:13.234Z,72.51
2023-03-05T03:54:40.312Z,73.07
2023-03-05T03:57:07.587Z,73.11
2023-03-05T03:59:34.707Z,72.63
2023-03-05T04:02:01.809Z,72.75
2023-03-05T04:04:30.473Z,72.79
2023-03-05T04:06:58.035Z,73.44
2023-03-05T04:09:25.028Z,73.25
2023-03-05T04:11:52.046Z,73.18
2023-03-05T04:14:19.178Z,72.77
2023-03-05T04:16:46.198Z,73.17
2023-03-05T04:19:13.323Z,72.97
2023-03-05T04:21:40.483Z,73.04
2023-03-05T04:24:08.525Z,72.76
2023-03-05T04:26:35.949Z,73.61
2023-03-05T04:29:03.021Z,73.65
2023-03-05T04:31:30.225Z,73.32
2023-03-05T04:33:57.359Z,73.40
2023-03-05T04:36:24.508Z,73.53
2023-03-05T04:38:51.621Z,73.39
2023-03-05T04:41:18.652Z,73.05
2023-03-05T04:43:45.776Z,72.83
2023-03-05T04:46:12.897Z,72.41
2023-03-05T04:48:39.921Z,73.25
2023-03-05T04:51:06.974Z,73.05
2023-03-05T04:53:34.031Z,72.97
2023-03-05T04:56:01.799Z,73.28
2023-03-05T04:58:29.451Z,73.58
2023-03-05T05:01:06.038Z,73.28
2023-03-05T05:03:33.311Z,73.04
2023-03-05T05:06:01.224Z,73.15
2023-03-05T05:08:29.107Z,72.88
2023-03-05T05:11:01.058Z,73.98
2023-03-05T05:13:28.926Z,73.49
2023-03-05T05:15:56.827Z,73.32
2023-03-05T05:18:24.657Z,72.84
2023-03-05T05:20:51.720Z,73.60
2023-03-05T05:23:18.960Z,72.97
2023-03-05T05:25:45.991Z,72.46
2023-03-05T05:28:13.328Z,73.22
2023-03-05T05:30:40.444Z,73.43
2023-03-05T05:33:07.443Z,73.04
2023-03-05T05:35:34.527Z,73.71
2023-03-05T05:38:01.584Z,73.82
2023-03-05T05:40:28.608Z,74.58
2023-03-05T05:42:55.693Z,75.00
2023-03-05T05:45:23.018Z,75.46
2023-03-05T05:47:50.039Z,76.49
2023-03-05T05:50:18.923Z,76.62
2023-03-05T05:52:46.020Z,77.76
2023-03-05T05:55:13.863Z,77.62
2023-03-05T05:57:41.129Z,78.99
2023-03-05T06:00:11.063Z,80.03
2023-03-05T06:02:43.706Z,81.07
2023-03-05T06:05:13.779Z,81.84
2023-03-05T06:07:41.026Z,82.08
2023-03-05T06:10:10.084Z,82.61
2023-03-05T06:12:37.456Z,83.30
2023-03-05T06:15:05.112Z,83.64
2023-03-05T06:17:32.147Z,84.19
2023-03-05T06:20:00.103Z,84.16
2023-03-05T06:22:27.231Z,83.84
2023-03-05T06:24:54.303Z,84.87
2023-03-05T06:27:21.468Z,84.85
2023-03-05T06:29:51.949Z,84.68
2023-03-05T06:32:19.084Z,85.11
2023-03-05T06:34:46.168Z,85.28
2023-03-05T06:37:13.240Z,85.22
2023-03-05T06:39:40.369Z,85.37
2023-03-05T06:42:07.638Z,86.49
2023-03-05T06:44:34.722Z,86.21
2023-03-05T06:47:01.831Z,86.33
2023-03-05T06:49:28.988Z,85.91
2023-03-05T06:51:56.030Z,86.59
2023-03-05T06:54:23.314Z,86.29
2023-03-05T06:56:50.410Z,86.72
2023-03-05T06:59:17.986Z,86.75
2023-03-05T07:01:45.942Z,87.17
2023-03-05T07:04:13.917Z,86.71
2023-03-05T07:06:45.109Z,86.72
2023-03-05T07:09:15.255Z,86.83
2023-03-05T07:11:42.458Z,88.51
2023-03-05T07:14:09.560Z,87.52
2023-03-05T07:16:36.782Z,87.66
2023-03-05T07:19:06.684Z,87.71
2023-03-05T07:21:36.052Z,87.39
2023-03-05T07:24:05.070Z,88.11
2023-03-05T07:26:33.730Z,88.51
2023-03-05T07:29:01.732Z,88.79
2023-03-05T07:31:32.361Z,88.82
2023-03-05T07:34:01.844Z,88.55
2023-03-05T07:36:29.451Z,88.42
2023-03-05T07:38:56.600Z,88.12
2023-03-05T07:41:23.962Z,88.78
2023-03-05T07:43:53.641Z,88.53
2023-03-05T07:46:23.946Z,88.81
2023-03-05T07:48:51.125Z,88.75
2023-03-05T07:51:20.322Z,88.63
2023-03-05T07:53:49.870Z,88.53
2023-03-05T07:56:25.213Z,87.71
2023-03-05T07:58:53.465Z,87.44
2023-03-05T08:01:21.057Z,88.07
2023-03-05T08:03:48.331Z,87.65
2023-03-05T08:06:16.094Z,87.46
2023-03-05T08:08:43.356Z,87.32
2023-03-05T08:11:13.137Z,87.07
2023-03-05T08:13:41.505Z,87.13
2023-03-05T08:16:14.979Z,87.38
2023-03-05T08:18:42.427Z,86.46
2023-03-05T08:21:20.598Z,86.27
2023-03-05T08:23:50.722Z,86.01
2023-03-05T08:26:19.502Z,85.91
2023-03-05T08:28:46.790Z,85.08
2023-03-05T08:31:16.539Z,85.49
2023-03-05T08:33:43.918Z,85.26
2023-03-05T08:36:11.223Z,85.16
2023-03-05T08:38:38.370Z,84.68
2023-03-05T08:41:06.177Z,84.81
2023-03-05T08:43:33.507Z,84.52
2023-03-05T08:46:01.795Z,84.44
2023-03-05T08:48:29.626Z,84.15
2023-03-05T08:50:56.799Z,83.92
2023-03-05T08:53:24.546Z,83.80
2023-03-05T08:55:56.470Z,83.48
2023-03-05T08:58:24.277Z,83.83
2023-03-05T09:00:53.989Z,83.83
2023-03-05T09:03:21.127Z,83.28
2023-03-05T09:05:48.744Z,82.98
2023-03-05T09:08:16.130Z,83.00
2023-03-05T09:10:43.370Z,82.79
2023-03-05T09:13:10.777Z,83.48
2023-03-05T09:15:38.971Z,83.34
2023-03-05T09:18:06.763Z,82.63
2023-03-05T09:20:34.148Z,82.63
2023-03-05T09:23:01.583Z,82.88
2023-03-05T09:25:28.852Z,82.80
2023-03-05T09:27:56.019Z,82.89
2023-03-05T09:30:23.327Z,82.66
2023-03-05T09:32:51.452Z,82.88
2023-03-05T09:35:18.657Z,83.16
2023-03-05T09:37:45.763Z,83.06
2023-03-05T09:40:19.096Z,82.93
2023-03-05T09:43:01.125Z,82.77
2023-03-05T09:45:37.034Z,82.97
2023-03-05T09:48:16.781Z,82.50
2023-03-05T09:50:48.509Z,82.67
2023-03-05T09:53:26.035Z,82.36
2023-03-05T09:55:55.970Z,82.52
2023-03-05T09:58:30.098Z,82.38
2023-03-05T10:01:09.189Z,82.50
2023-03-05T10:03:59.980Z,82.21
2023-03-05T10:06:37.448Z,82.03
2023-03-05T10:09:12.930Z,82.29
2023-03-05T10:11:43.101Z,82.36
2023-03-05T10:14:22.443Z,82.18
2023-03-05T10:17:27.312Z,82.29
2023-03-05T10:20:15.990Z,82.21
2023-03-05T10:23:13.179Z,82.13
2023-03-05T10:26:02.455Z,81.98
2023-03-05T10:28:48.509Z,82.26
2023-03-05T10:31:42.895Z,82.00
2023-03-05T10:34:33.940Z,82.04
2023-03-05T10:37:22.709Z,81.60
2023-03-05T10:40:00.868Z,81.48
2023-03-05T10:42:39.941Z,81.41
2023-03-05T10:45:35.373Z,81.47
2023-03-05T10:48:06.528Z,81.33
2023-03-05T10:50:40.277Z,81.36
2023-03-05T10:53:17.293Z,81.74
2023-03-05T10:55:44.573Z,81.30
2023-03-05T10:58:13.912Z,81.65
2023-03-05T11:00:57.593Z,81.68
2023-03-05T11:03:26.230Z,81.59
2023-03-05T11:06:02.223Z,81.44
2023-03-05T11:08:36.860Z,81.84
2023-03-05T11:11:10.152Z,81.53
2023-03-05T11:13:45.047Z,81.61
2023-03-05T11:16:25.887Z,81.13
2023-03-05T11:19:22.623Z,82.07
2023-03-05T11:22:08.633Z,82.00
2023-03-05T11:24:35.756Z,82.12
2023-03-05T11:27:21.469Z,82.21
2023-03-05T11:29:49.970Z,81.75
2023-03-05T11:32:22.910Z,81.80
2023-03-05T11:34:50.140Z,81.42
2023-03-05T11:37:30.651Z,81.33
2023-03-05T11:40:20.688Z,81.28
2023-03-05T11:42:56.880Z,81.12
2023-03-05T11:45:26.507Z,81.37
2023-03-05T11:47:57.690Z,80.57
2023-03-05T11:50:30.332Z,80.33
2023-03-05T11:53:20.944Z,80.17
2023-03-05T11:56:39.535Z,79.70
2023-03-05T11:59:25.259Z,79.18
2023-03-05T12:01:55.067Z,79.15
2023-03-05T12:04:23.861Z,78.79
2023-03-05T12:06:54.952Z,77.87
2023-03-05T12:09:42.383Z,76.84
2023-03-05T12:12:21.142Z,76.88
2023-03-05T12:15:03.164Z,76.05
2023-03-05T12:18:02.262Z,76.33
2023-03-05T12:20:44.291Z,76.06
2023-03-05T12:23:15.061Z,76.04
2023-03-05T12:25:48.637Z,76.07
2023-03-05T12:28:37.338Z,75.54
2023-03-05T12:31:23.933Z,75.31
2023-03-05T12:33:51.036Z,74.64
2023-03-05T12:36:20.771Z,74.61
2023-03-05T12:38:55.837Z,74.73
2023-03-05T12:41:22.884Z,74.28
2023-03-05T12:44:07.910Z,74.76
2023-03-05T12:46:44.853Z,75.12
2023-03-05T12:49:20.815Z,75.65
2023-03-05T12:51:53.168Z,75.12
2023-03-05T12:54:23.035Z,74.98
2023-03-05T12:56:52.712Z,75.21
2023-03-05T12:59:22.706Z,75.41
2023-03-05T13:01:59.766Z,75.22
2023-03-05T13:04:32.873Z,75.14
2023-03-05T13:07:06.678Z,74.58
2023-03-05T13:09:36.587Z,74.90
2023-03-05T13:12:11.754Z,74.96
2023-03-05T13:14:57.548Z,74.24
2023-03-05T13:17:29.318Z,74.04
2023-03-05T13:19:58.175Z,73.91
2023-03-05T13:22:25.806Z,73.75
2023-03-05T13:25:11.969Z,72.78
2023-03-05T13:27:39.394Z,73.36
2023-03-05T13:30:07.158Z,72.90
2023-03-05T13:32:34.296Z,73.10
2023-03-05T13:35:02.369Z,72.89
2023-03-05T13:37:34.900Z,72.50
2023-03-05T13:40:07.547Z,72.22
2023-03-05T13:42:36.446Z,72.28
2023-03-05T13:45:27.071Z,72.41
2023-03-05T13:48:00.388Z,71.11
2023-03-05T13:50:39.432Z,71.35
2023-03-05T13:53:18.241Z,71.00
2023-03-05T13:55:47.081Z,71.78
2023-03-05T13:58:42.051Z,72.24
2023-03-05T14:01:15.981Z,72.55
2023-03-05T14:03:43.347Z,73.19
2023-03-05T14:06:12.944Z,73.12
2023-03-05T14:08:40.653Z,73.38
2023-03-05T14:11:16.716Z,73.72
2023-03-05T14:13:45.175Z,73.58
2023-03-05T14:16:23.485Z,74.04
2023-03-05T14:18:59.642Z,73.89
2023-03-05T14:21:43.405Z,73.83
2023-03-05T14:24:27.767Z,74.23
2023-03-05T14:26:56.884Z,74.33
2023-03-05T14:29:28.193Z,74.35
2023-03-05T14:32:06.409Z,74.13
2023-03-05T14:34:38.268Z,74.86
2023-03-05T14:37:35.682Z,75.32
2023-03-05T14:40:07.508Z,75.29
2023-03-05T14:42:38.736Z,74.94
2023-03-05T14:45:14.455Z,74.53
2023-03-05T14:47:41.942Z,74.09
2023-03-05T14:50:15.072Z,73.51
2023-03-05T14:52:42.390Z,72.86
2023-03-05T14:55:18.056Z,72.41
2023-03-05T14:57:46.292Z,72.67
2023-03-05T15:00:18.468Z,72.56
2023-03-05T15:02:45.764Z,72.27
2023-03-05T15:05:12.979Z,72.47
2023-03-05T15:07:40.196Z,72.55
2023-03-05T15:10:08.862Z,72.46
2023-03-05T15:12:35.991Z,72.17
2023-03-05T15:15:03.811Z,71.97
2023-03-05T15:17:36.808Z,72.64
2023-03-05T15:20:09.108Z,72.70
2023-03-05T15:22:39.266Z,72.88
2023-03-05T15:25:06.604Z,72.81
2023-03-05T15:27:33.765Z,73.16
2023-03-05T15:30:00.957Z,73.00
2023-03-05T15:32:29.303Z,73.17
2023-03-05T15:34:56.669Z,73.71
2023-03-05T15:37:24.101Z,74.10
2023-03-05T15:39:51.221Z,74.00
2023-03-05T15:42:18.568Z,74.20
2023-03-05T15:44:45.612Z,74.61
2023-03-05T15:47:12.765Z,75.16
2023-03-05T15:49:39.881Z,76.28
2023-03-05T15:52:07.094Z,77.96
2023-03-05T15:54:36.547Z,79.89
2023-03-05T15:57:08.303Z,81.65
2023-03-05T15:59:35.445Z,83.57
2023-03-05T16:02:02.650Z,84.59
2023-03-05T16:04:29.939Z,86.28
2023-03-05T16:06:59.624Z,86.67
2023-03-05T16:09:35.379Z,86.65
2023-03-05T16:12:04.931Z,86.67
2023-03-05T16:14:32.675Z,86.91
2023-03-05T16:17:03.449Z,86.82
2023-03-05T16:19:31.830Z,87.12
2023-03-05T16:21:58.979Z,87.10
2023-03-05T16:24:26.262Z,87.29
2023-03-05T16:26:53.972Z,87.40
2023-03-05T16:29:21.217Z,87.37
2023-03-05T16:31:48.500Z,86.94
2023-03-05T16:34:16.563Z,86.80
2023-03-05T16:36:52.941Z,86.72
2023-03-05T16:39:21.696Z,86.43
2023-03-05T16:41:53.387Z,85.98
2023-03-05T16:44:21.948Z,85.94
2023-03-05T16:46:53.431Z,86.15
2023-03-05T16:49:21.458Z,86.20
2023-03-05T16:51:49.373Z,86.25
2023-03-05T16:54:16.468Z,86.09
2023-03-05T16:56:43.678Z,86.36
2023-03-05T16:59:11.874Z,86.44
2023-03-05T17:01:39.023Z,86.28
2023-03-05T17:04:06.316Z,86.32
2023-03-05T17:06:35.005Z,86.30
2023-03-05T17:09:02.946Z,86.11
2023-03-05T17:11:30.391Z,86.12
2023-03-05T17:13:57.794Z,86.30
2023-03-05T17:16:25.848Z,86.50
2023-03-05T17:18:56.184Z,86.62
2023-03-05T17:21:23.310Z,86.78
2023-03-05T17:23:50.538Z,86.94
2023-03-05T17:26:21.157Z,86.95
2023-03-05T17:28:48.433Z,86.92
2023-03-05T17:31:15.878Z,87.58
2023-03-05T17:33:43.588Z,87.40
2023-03-05T17:36:24.062Z,87.51
2023-03-05T17:38:52.538Z,87.54
2023-03-05T17:41:20.030Z,86.95
2023-03-05T17:43:47.248Z,86.71
2023-03-05T17:46:15.211Z,86.11
2023-03-05T17:48:42.485Z,86.38
2023-03-05T17:51:13.086Z,85.67
2023-03-05T17:53:40.757Z,85.08
2023-03-05T17:56:12.947Z,85.12
2023-03-05T17:58:41.089Z,84.98
2023-03-05T18:01:09.056Z,84.46
2023-03-05T18:03:36.862Z,84.48
2023-03-05T18:06:05.188Z,84.17
2023-03-05T18:08:32.480Z,83.92
2023-03-05T18:10:59.669Z,83.73
2023-03-05T18:13:26.859Z,83.50
2023-03-05T18:15:53.982Z,83.24
2023-03-05T18:18:21.128Z,83.50
2023-03-05T18:20:48.948Z,83.27
2023-03-05T18:23:16.456Z,83.40
2023-03-05T18:25:44.618Z,83.18
2023-03-05T18:28:13.478Z,83.49
2023-03-05T18:30:43.967Z,83.74
2023-03-05T18:33:29.208Z,83.81
2023-03-05T18:35:57.799Z,83.39
2023-03-05T18:38:29.038Z,83.65
2023-03-05T18:40:57.511Z,83.84
2023-03-05T18:43:25.344Z,84.24
2023-03-05T18:45:54.761Z,84.38
2023-03-05T18:48:22.833Z,84.71
2023-03-05T18:50:54.132Z,84.06
2023-03-05T18:53:22.282Z,84.63
2023-03-05T18:55:51.299Z,84.42
2023-03-05T18:58:19.040Z,84.01
2023-03-05T19:00:47.318Z,84.08
2023-03-05T19:03:16.681Z,84.40
2023-03-05T19:05:43.775Z,84.86
2023-03-05T19:08:11.260Z,84.54
2023-03-05T19:10:38.834Z,84.11
2023-03-05T19:13:35.624Z,84.26
2023-03-05T19:16:24.036Z,84.38
2023-03-05T19:19:16.873Z,84.12
2023-03-05T19:21:49.905Z,83.91
2023-03-05T19:24:17.736Z,84.63
2023-03-05T19:26:44.956Z,84.58
2023-03-05T19:29:13.227Z,84.94
2023-03-05T19:31:40.583Z,84.18
2023-03-05T19:34:08.583Z,84.63
2023-03-05T19:36:35.852Z,84.32
2023-03-05T19:39:05.352Z,84.76
2023-03-05T19:41:33.324Z,84.98
2023-03-05T19:44:00.508Z,84.74
2023-03-05T19:46:27.839Z,85.21
2023-03-05T19:48:55.171Z,85.26
2023-03-05T19:51:24.632Z,85.02
2023-03-05T19:53:52.714Z,85.26
2023-03-05T19:56:20.041Z,85.38
2023-03-05T19:58:49.220Z,85.22
2023-03-05T20:01:19.636Z,85.10
2023-03-05T20:03:51.975Z,85.26
2023-03-05T20:06:20.025Z,85.50
2023-03-05T20:08:47.769Z,85.78
2023-03-05T20:11:16.639Z,86.01
2023-03-05T20:13:44.743Z,85.68
2023-03-05T20:16:23.579Z,85.24
2023-03-05T20:18:53.083Z,85.88
2023-03-05T20:21:24.544Z,85.27
2023-03-05T20:23:53.377Z,85.16
2023-03-05T20:26:21.757Z,85.58
2023-03-05T20:28:50.035Z,85.91
2023-03-05T20:31:22.362Z,85.04
2023-03-05T20:33:49.568Z,85.33
2023-03-05T20:36:16.875Z,85.95
2023-03-05T20:38:45.870Z,86.04
2023-03-05T20:41:15.660Z,85.86
2023-03-05T20:43:46.421Z,86.40
2023-03-05T20:46:16.268Z,86.21
2023-03-05T20:48:43.606Z,86.27
2023-03-05T20:51:16.740Z,86.15
2023-03-05T20:53:43.843Z,86.23
2023-03-05T20:56:11.198Z,86.21
2023-03-05T20:58:38.558Z,86.24
2023-03-05T21:01:06.086Z,86.80
2023-03-05T21:03:33.312Z,86.52
2023-03-05T21:06:02.734Z,86.33
2023-03-05T21:08:29.850Z,87.02
2023-03-05T21:10:57.401Z,86.81
2023-03-05T21:13:25.572Z,87.01
2023-03-05T21:15:52.814Z,87.00
2023-03-05T21:18:19.935Z,86.41
2023-03-05T21:20:47.075Z,87.21
2023-03-05T21:23:14.118Z,86.37
2023-03-05T21:25:41.190Z,87.18
2023-03-05T21:28:12.649Z,86.75
2023-03-05T21:30:43.807Z,87.14
2023-03-05T21:33:14.630Z,87.12
2023-03-05T21:35:42.110Z,87.26
2023-03-05T21:38:10.708Z,86.93
2023-03-05T21:40:43.599Z,87.08
2023-03-05T21:43:16.228Z,86.96
2023-03-05T21:45:43.462Z,87.38
2023-03-05T21:48:10.584Z,87.13
2023-03-05T21:50:39.962Z,87.33
2023-03-05T21:53:08.168Z,87.47
2023-03-05T21:55:45.459Z,86.68
2023-03-05T21:58:13.154Z,87.41
2023-03-05T22:00:40.218Z,87.11
2023-03-05T22:03:07.282Z,87.52
2023-03-05T22:05:34.370Z,87.46
2023-03-05T22:08:01.445Z,87.39
2023-03-05T22:10:28.486Z,87.37
2023-03-05T22:13:12.035Z,87.53
2023-03-05T22:15:49.580Z,87.77
2023-03-05T22:18:25.672Z,88.06
2023-03-05T22:20:53.993Z,87.89
2023-03-05T22:23:22.620Z,87.86
2023-03-05T22:26:05.017Z,87.91
2023-03-05T22:28:33.487Z,88.20
2023-03-05T22:31:00.874Z,88.09
2023-03-05T22:33:28.533Z,88.25
2023-03-05T22:35:55.697Z,87.79
2023-03-05T22:38:23.829Z,87.97
2023-03-05T22:40:51.802Z,87.79
2023-03-05T22:43:19.152Z,87.73
2023-03-05T22:45:46.226Z,88.47
2023-03-05T22:48:13.558Z,87.69
2023-03-05T22:50:42.055Z,87.96
2023-03-05T22:53:09.217Z,88.22
2023-03-05T22:55:41.156Z,88.17
2023-03-05T22:58:08.394Z,88.04
2023-03-05T23:00:35.498Z,88.35
2023-03-05T23:03:02.720Z,88.10
2023-03-05T23:05:29.880Z,88.04
2023-03-05T23:07:56.834Z,88.04
2023-03-05T23:10:27.455Z,88.21
2023-03-05T23:12:57.101Z,87.99
2023-03-05T23:15:33.571Z,88.11
2023-03-05T23:18:01.702Z,88.24
2023-03-05T23:20:32.243Z,87.83
2023-03-05T23:22:59.778Z,88.49
2023-03-05T23:25:29.332Z,88.30
2023-03-05T23:27:58.218Z,88.24
2023-03-05T23:30:37.477Z,88.32
2023-03-05T23:33:08.694Z,88.49
2023-03-05T23:35:41.144Z,88.80
2023-03-05T23:38:12.427Z,88.38
2023-03-05T23:40:45.090Z,87.94
2023-03-05T23:43:12.573Z,88.52
2023-03-05T23:45:42.266Z,88.63
2023-03-05T23:48:09.445Z,88.40
2023-03-05T23:50:39.156Z,88.45
2023-03-05T23:53:07.327Z,88.22
2023-03-05T23:55:37.498Z,88.13
2023-03-05T23:58:04.546Z,88.15
